sensor_id;sensor_type;location;lat;lon;timestamp;P1;durP1;ratioP1;P2;durP2;ratioP2
59970;SDS011;45825;45.434;9.116;2024-01-15T00:00:07;77.35;;;47.85;;
59970;SDS011;45825;45.434;9.116;2024-01-15T00:02:33;80.28;;;47.95;;
59970;SDS011;45825;45.434;9.116;2024-01-15T00:04:59;73.40;;;45.95;;
59970;SDS011;45825;45.434;9.116;2024-01-15T00:07:24;74.55;;;46.80;;
59970;SDS011;45825;45.434;9.116;2024-01-15T00:09:49;77.00;;;47.58;;
59970;SDS011;45825;45.434;9.116;2024-01-15T00:12:15;73.50;;;46.63;;
59970;SDS011;45825;45.434;9.116;2024-01-15T00:14:40;73.63;;;45.83;;
59970;SDS011;45825;45.434;9.116;2024-01-15T00:17:05;74.40;;;46.55;;
59970;SDS011;45825;45.434;9.116;2024-01-15T00:19:31;76.15;;;46.28;;
59970;SDS011;45825;45.434;9.116;2024-01-15T00:21:57;77.43;;;48.38;;
59970;SDS011;45825;45.434;9.116;2024-01-15T00:24:22;75.72;;;47.33;;
59970;SDS011;45825;45.434;9.116;2024-01-15T00:26:48;74.18;;;48.78;;
59970;SDS011;45825;45.434;9.116;2024-01-15T00:29:13;76.82;;;48.30;;
59970;SDS011;45825;45.434;9.116;2024-01-15T00:31:38;74.68;;;49.92;;
59970;SDS011;45825;45.434;9.116;2024-01-15T00:34:04;74.10;;;47.65;;
59970;SDS011;45825;45.434;9.116;2024-01-15T00:36:29;70.57;;;45.85;;
59970;SDS011;45825;45.434;9.116;2024-01-15T00:38:54;75.38;;;47.47;;
59970;SDS011;45825;45.434;9.116;2024-01-15T00:41:19;74.60;;;48.03;;
59970;SDS011;45825;45.434;9.116;2024-01-15T00:43:45;76.95;;;47.70;;
59970;SDS011;45825;45.434;9.116;2024-01-15T00:46:11;83.68;;;50.92;;
59970;SDS011;45825;45.434;9.116;2024-01-15T00:48:36;75.78;;;46.75;;
59970;SDS011;45825;45.434;9.116;2024-01-15T00:51:02;77.68;;;49.22;;
59970;SDS011;45825;45.434;9.116;2024-01-15T00:53:29;75.97;;;47.25;;
59970;SDS011;45825;45.434;9.116;2024-01-15T00:55:54;75.47;;;47.67;;
59970;SDS011;45825;45.434;9.116;2024-01-15T00:58:20;80.47;;;49.72;;
59970;SDS011;45825;45.434;9.116;2024-01-15T01:00:45;77.47;;;49.85;;
59970;SDS011;45825;45.434;9.116;2024-01-15T01:03:10;80.57;;;51.10;;
59970;SDS011;45825;45.434;9.116;2024-01-15T01:05:36;77.15;;;48.13;;
59970;SDS011;45825;45.434;9.116;2024-01-15T01:08:01;76.93;;;47.28;;
59970;SDS011;45825;45.434;9.116;2024-01-15T01:10:27;79.03;;;50.00;;
59970;SDS011;45825;45.434;9.116;2024-01-15T01:12:52;77.13;;;49.22;;
59970;SDS011;45825;45.434;9.116;2024-01-15T01:15:18;76.00;;;47.35;;
59970;SDS011;45825;45.434;9.116;2024-01-15T01:17:43;77.63;;;46.72;;
59970;SDS011;45825;45.434;9.116;2024-01-15T01:20:08;78.13;;;47.17;;
59970;SDS011;45825;45.434;9.116;2024-01-15T01:22:35;78.60;;;47.45;;
59970;SDS011;45825;45.434;9.116;2024-01-15T01:25:01;71.70;;;45.80;;
59970;SDS011;45825;45.434;9.116;2024-01-15T01:27:26;76.03;;;47.53;;
59970;SDS011;45825;45.434;9.116;2024-01-15T01:29:51;76.22;;;47.72;;
59970;SDS011;45825;45.434;9.116;2024-01-15T01:32:17;76.47;;;48.10;;
59970;SDS011;45825;45.434;9.116;2024-01-15T01:34:43;79.82;;;48.00;;
59970;SDS011;45825;45.434;9.116;2024-01-15T01:37:09;71.82;;;47.17;;
59970;SDS011;45825;45.434;9.116;2024-01-15T01:39:38;78.20;;;49.30;;
59970;SDS011;45825;45.434;9.116;2024-01-15T01:42:04;79.25;;;49.55;;
59970;SDS011;45825;45.434;9.116;2024-01-15T01:44:29;79.32;;;49.05;;
59970;SDS011;45825;45.434;9.116;2024-01-15T01:46:55;77.30;;;48.95;;
59970;SDS011;45825;45.434;9.116;2024-01-15T01:49:22;81.55;;;49.90;;
59970;SDS011;45825;45.434;9.116;2024-01-15T01:51:49;77.82;;;48.17;;
59970;SDS011;45825;45.434;9.116;2024-01-15T01:54:15;76.00;;;47.55;;
59970;SDS011;45825;45.434;9.116;2024-01-15T01:56:41;74.55;;;47.70;;
59970;SDS011;45825;45.434;9.116;2024-01-15T01:59:07;77.38;;;48.15;;
59970;SDS011;45825;45.434;9.116;2024-01-15T02:01:34;74.45;;;46.63;;
59970;SDS011;45825;45.434;9.116;2024-01-15T02:04:00;81.03;;;49.20;;
59970;SDS011;45825;45.434;9.116;2024-01-15T02:06:25;76.03;;;49.70;;
59970;SDS011;45825;45.434;9.116;2024-01-15T02:08:50;74.82;;;47.42;;
59970;SDS011;45825;45.434;9.116;2024-01-15T02:11:16;72.03;;;46.75;;
59970;SDS011;45825;45.434;9.116;2024-01-15T02:13:41;79.13;;;47.13;;
59970;SDS011;45825;45.434;9.116;2024-01-15T02:16:07;76.72;;;47.90;;
59970;SDS011;45825;45.434;9.116;2024-01-15T02:18:42;80.63;;;48.63;;
59970;SDS011;45825;45.434;9.116;2024-01-15T02:21:08;78.97;;;49.35;;
59970;SDS011;45825;45.434;9.116;2024-01-15T02:23:34;81.35;;;49.40;;
59970;SDS011;45825;45.434;9.116;2024-01-15T02:25:59;78.55;;;49.15;;
59970;SDS011;45825;45.434;9.116;2024-01-15T02:28:25;79.75;;;47.70;;
59970;SDS011;45825;45.434;9.116;2024-01-15T02:30:51;77.63;;;47.95;;
59970;SDS011;45825;45.434;9.116;2024-01-15T02:33:16;83.10;;;49.67;;
59970;SDS011;45825;45.434;9.116;2024-01-15T02:35:41;82.35;;;48.72;;
59970;SDS011;45825;45.434;9.116;2024-01-15T02:38:07;84.00;;;49.03;;
59970;SDS011;45825;45.434;9.116;2024-01-15T02:40:33;86.13;;;50.50;;
59970;SDS011;45825;45.434;9.116;2024-01-15T02:43:00;85.75;;;50.33;;
59970;SDS011;45825;45.434;9.116;2024-01-15T02:45:27;82.28;;;48.22;;
59970;SDS011;45825;45.434;9.116;2024-01-15T02:47:52;86.55;;;50.63;;
59970;SDS011;45825;45.434;9.116;2024-01-15T02:50:18;82.68;;;47.80;;
59970;SDS011;45825;45.434;9.116;2024-01-15T02:52:43;82.50;;;50.60;;
59970;SDS011;45825;45.434;9.116;2024-01-15T02:55:08;76.57;;;48.08;;
59970;SDS011;45825;45.434;9.116;2024-01-15T02:57:34;77.30;;;47.80;;
59970;SDS011;45825;45.434;9.116;2024-01-15T02:59:59;83.40;;;49.08;;
59970;SDS011;45825;45.434;9.116;2024-01-15T03:02:24;80.38;;;49.20;;
59970;SDS011;45825;45.434;9.116;2024-01-15T03:04:50;73.53;;;46.20;;
59970;SDS011;45825;45.434;9.116;2024-01-15T03:07:15;75.53;;;48.17;;
59970;SDS011;45825;45.434;9.116;2024-01-15T03:09:41;80.20;;;49.00;;
59970;SDS011;45825;45.434;9.116;2024-01-15T03:12:06;84.93;;;50.47;;
59970;SDS011;45825;45.434;9.116;2024-01-15T03:14:32;81.88;;;47.70;;
59970;SDS011;45825;45.434;9.116;2024-01-15T03:16:57;83.20;;;49.92;;
59970;SDS011;45825;45.434;9.116;2024-01-15T03:19:23;82.78;;;47.55;;
59970;SDS011;45825;45.434;9.116;2024-01-15T03:21:51;78.28;;;48.78;;
59970;SDS011;45825;45.434;9.116;2024-01-15T03:24:16;82.03;;;49.05;;
59970;SDS011;45825;45.434;9.116;2024-01-15T03:26:42;77.53;;;48.45;;
59970;SDS011;45825;45.434;9.116;2024-01-15T03:29:07;79.72;;;48.85;;
59970;SDS011;45825;45.434;9.116;2024-01-15T03:31:32;79.60;;;50.17;;
59970;SDS011;45825;45.434;9.116;2024-01-15T03:33:58;80.28;;;49.53;;
59970;SDS011;45825;45.434;9.116;2024-01-15T03:36:23;79.93;;;50.10;;
59970;SDS011;45825;45.434;9.116;2024-01-15T03:38:48;84.00;;;50.45;;
59970;SDS011;45825;45.434;9.116;2024-01-15T03:41:14;85.28;;;51.38;;
59970;SDS011;45825;45.434;9.116;2024-01-15T03:43:39;88.70;;;51.30;;
59970;SDS011;45825;45.434;9.116;2024-01-15T03:46:05;89.88;;;52.85;;
59970;SDS011;45825;45.434;9.116;2024-01-15T03:48:30;86.53;;;51.15;;
59970;SDS011;45825;45.434;9.116;2024-01-15T03:50:55;78.30;;;48.85;;
59970;SDS011;45825;45.434;9.116;2024-01-15T03:53:21;80.88;;;49.10;;
59970;SDS011;45825;45.434;9.116;2024-01-15T03:55:46;80.78;;;49.28;;
59970;SDS011;45825;45.434;9.116;2024-01-15T03:58:11;82.20;;;48.05;;
59970;SDS011;45825;45.434;9.116;2024-01-15T04:00:37;75.55;;;47.20;;
59970;SDS011;45825;45.434;9.116;2024-01-15T04:03:02;76.47;;;48.47;;
59970;SDS011;45825;45.434;9.116;2024-01-15T04:05:27;78.22;;;48.45;;
59970;SDS011;45825;45.434;9.116;2024-01-15T04:07:53;80.78;;;49.70;;
59970;SDS011;45825;45.434;9.116;2024-01-15T04:10:18;73.95;;;48.30;;
59970;SDS011;45825;45.434;9.116;2024-01-15T04:12:43;80.65;;;49.72;;
59970;SDS011;45825;45.434;9.116;2024-01-15T04:15:11;76.03;;;47.92;;
59970;SDS011;45825;45.434;9.116;2024-01-15T04:17:37;78.93;;;47.25;;
59970;SDS011;45825;45.434;9.116;2024-01-15T04:20:02;74.57;;;48.17;;
59970;SDS011;45825;45.434;9.116;2024-01-15T04:22:27;71.40;;;47.88;;
59970;SDS011;45825;45.434;9.116;2024-01-15T04:24:53;74.75;;;47.55;;
59970;SDS011;45825;45.434;9.116;2024-01-15T04:27:18;74.13;;;48.67;;
59970;SDS011;45825;45.434;9.116;2024-01-15T04:29:43;71.60;;;47.25;;
59970;SDS011;45825;45.434;9.116;2024-01-15T04:32:09;75.15;;;47.50;;
59970;SDS011;45825;45.434;9.116;2024-01-15T04:34:35;76.35;;;48.42;;
59970;SDS011;45825;45.434;9.116;2024-01-15T04:37:00;73.72;;;47.85;;
59970;SDS011;45825;45.434;9.116;2024-01-15T04:39:25;77.43;;;50.72;;
59970;SDS011;45825;45.434;9.116;2024-01-15T04:41:50;75.07;;;47.63;;
59970;SDS011;45825;45.434;9.116;2024-01-15T04:44:16;72.65;;;48.80;;
59970;SDS011;45825;45.434;9.116;2024-01-15T04:46:41;73.82;;;48.05;;
59970;SDS011;45825;45.434;9.116;2024-01-15T04:49:08;78.28;;;49.78;;
59970;SDS011;45825;45.434;9.116;2024-01-15T04:51:34;78.47;;;50.03;;
59970;SDS011;45825;45.434;9.116;2024-01-15T04:53:59;81.32;;;51.13;;
59970;SDS011;45825;45.434;9.116;2024-01-15T04:56:24;73.88;;;49.22;;
59970;SDS011;45825;45.434;9.116;2024-01-15T04:58:50;76.15;;;48.78;;
59970;SDS011;45825;45.434;9.116;2024-01-15T05:01:15;81.63;;;51.20;;
59970;SDS011;45825;45.434;9.116;2024-01-15T05:03:41;78.68;;;50.28;;
59970;SDS011;45825;45.434;9.116;2024-01-15T05:06:07;78.70;;;48.45;;
59970;SDS011;45825;45.434;9.116;2024-01-15T05:08:32;85.55;;;51.22;;
59970;SDS011;45825;45.434;9.116;2024-01-15T05:10:57;74.60;;;48.95;;
59970;SDS011;45825;45.434;9.116;2024-01-15T05:13:23;82.07;;;50.58;;
59970;SDS011;45825;45.434;9.116;2024-01-15T05:15:48;81.47;;;50.83;;
59970;SDS011;45825;45.434;9.116;2024-01-15T05:18:13;79.55;;;50.95;;
59970;SDS011;45825;45.434;9.116;2024-01-15T05:20:38;81.07;;;50.83;;
59970;SDS011;45825;45.434;9.116;2024-01-15T05:23:04;79.55;;;49.80;;
59970;SDS011;45825;45.434;9.116;2024-01-15T05:25:29;78.30;;;50.53;;
59970;SDS011;45825;45.434;9.116;2024-01-15T05:27:54;78.43;;;48.95;;
59970;SDS011;45825;45.434;9.116;2024-01-15T05:30:20;78.30;;;49.30;;
59970;SDS011;45825;45.434;9.116;2024-01-15T05:32:45;80.93;;;50.33;;
59970;SDS011;45825;45.434;9.116;2024-01-15T05:35:10;77.43;;;49.58;;
59970;SDS011;45825;45.434;9.116;2024-01-15T05:37:35;78.00;;;49.88;;
59970;SDS011;45825;45.434;9.116;2024-01-15T05:40:01;75.18;;;48.90;;
59970;SDS011;45825;45.434;9.116;2024-01-15T05:42:26;78.97;;;49.42;;
59970;SDS011;45825;45.434;9.116;2024-01-15T05:44:51;74.32;;;50.28;;
59970;SDS011;45825;45.434;9.116;2024-01-15T05:47:17;79.03;;;51.90;;
59970;SDS011;45825;45.434;9.116;2024-01-15T05:49:43;78.72;;;49.70;;
59970;SDS011;45825;45.434;9.116;2024-01-15T05:52:08;79.72;;;50.88;;
59970;SDS011;45825;45.434;9.116;2024-01-15T05:54:34;80.47;;;50.50;;
59970;SDS011;45825;45.434;9.116;2024-01-15T05:56:59;76.75;;;49.45;;
59970;SDS011;45825;45.434;9.116;2024-01-15T05:59:24;76.20;;;50.00;;
59970;SDS011;45825;45.434;9.116;2024-01-15T06:01:50;81.40;;;51.67;;
59970;SDS011;45825;45.434;9.116;2024-01-15T06:04:15;76.40;;;50.15;;
59970;SDS011;45825;45.434;9.116;2024-01-15T06:06:41;84.85;;;51.83;;
59970;SDS011;45825;45.434;9.116;2024-01-15T06:09:06;82.32;;;52.03;;
59970;SDS011;45825;45.434;9.116;2024-01-15T06:11:32;75.10;;;50.55;;
59970;SDS011;45825;45.434;9.116;2024-01-15T06:13:57;82.60;;;51.97;;
59970;SDS011;45825;45.434;9.116;2024-01-15T06:16:23;81.47;;;50.90;;
59970;SDS011;45825;45.434;9.116;2024-01-15T06:18:49;75.38;;;48.97;;
59970;SDS011;45825;45.434;9.116;2024-01-15T06:21:14;71.53;;;50.72;;
59970;SDS011;45825;45.434;9.116;2024-01-15T06:23:41;78.47;;;51.25;;
59970;SDS011;45825;45.434;9.116;2024-01-15T06:26:06;79.13;;;50.63;;
59970;SDS011;45825;45.434;9.116;2024-01-15T06:28:31;73.22;;;49.72;;
59970;SDS011;45825;45.434;9.116;2024-01-15T06:30:57;69.13;;;47.95;;
59970;SDS011;45825;45.434;9.116;2024-01-15T06:33:23;74.45;;;48.90;;
59970;SDS011;45825;45.434;9.116;2024-01-15T06:35:48;74.47;;;47.00;;
59970;SDS011;45825;45.434;9.116;2024-01-15T06:38:14;88.45;;;50.17;;
59970;SDS011;45825;45.434;9.116;2024-01-15T06:40:39;75.85;;;47.17;;
59970;SDS011;45825;45.434;9.116;2024-01-15T06:43:10;81.45;;;48.60;;
59970;SDS011;45825;45.434;9.116;2024-01-15T06:45:35;84.25;;;50.88;;
59970;SDS011;45825;45.434;9.116;2024-01-15T06:48:01;79.43;;;48.97;;
59970;SDS011;45825;45.434;9.116;2024-01-15T06:50:26;90.00;;;52.50;;
59970;SDS011;45825;45.434;9.116;2024-01-15T06:52:51;90.00;;;52.10;;
59970;SDS011;45825;45.434;9.116;2024-01-15T06:55:16;91.68;;;52.80;;
59970;SDS011;45825;45.434;9.116;2024-01-15T06:57:42;100.43;;;52.22;;
59970;SDS011;45825;45.434;9.116;2024-01-15T07:00:08;90.50;;;50.53;;
59970;SDS011;45825;45.434;9.116;2024-01-15T07:02:34;100.75;;;54.92;;
59970;SDS011;45825;45.434;9.116;2024-01-15T07:04:59;124.05;;;58.10;;
59970;SDS011;45825;45.434;9.116;2024-01-15T07:07:24;110.10;;;58.75;;
59970;SDS011;45825;45.434;9.116;2024-01-15T07:09:53;109.00;;;55.10;;
59970;SDS011;45825;45.434;9.116;2024-01-15T07:12:19;112.43;;;58.60;;
59970;SDS011;45825;45.434;9.116;2024-01-15T07:14:44;123.72;;;60.88;;
59970;SDS011;45825;45.434;9.116;2024-01-15T07:17:10;129.73;;;63.65;;
59970;SDS011;45825;45.434;9.116;2024-01-15T07:19:35;132.63;;;64.00;;
59970;SDS011;45825;45.434;9.116;2024-01-15T07:22:00;122.50;;;60.03;;
59970;SDS011;45825;45.434;9.116;2024-01-15T07:24:26;124.43;;;60.13;;
59970;SDS011;45825;45.434;9.116;2024-01-15T07:26:51;112.03;;;58.92;;
59970;SDS011;45825;45.434;9.116;2024-01-15T07:29:16;111.03;;;58.78;;
59970;SDS011;45825;45.434;9.116;2024-01-15T07:31:47;112.45;;;61.03;;
59970;SDS011;45825;45.434;9.116;2024-01-15T07:34:13;105.28;;;56.80;;
59970;SDS011;45825;45.434;9.116;2024-01-15T07:36:38;105.13;;;56.05;;
59970;SDS011;45825;45.434;9.116;2024-01-15T07:39:04;101.15;;;56.10;;
59970;SDS011;45825;45.434;9.116;2024-01-15T07:41:29;102.72;;;56.10;;
59970;SDS011;45825;45.434;9.116;2024-01-15T07:43:54;113.45;;;57.33;;
59970;SDS011;45825;45.434;9.116;2024-01-15T07:46:20;117.10;;;58.70;;
59970;SDS011;45825;45.434;9.116;2024-01-15T07:48:45;124.85;;;60.63;;
59970;SDS011;45825;45.434;9.116;2024-01-15T07:51:10;126.35;;;63.78;;
59970;SDS011;45825;45.434;9.116;2024-01-15T07:53:36;116.13;;;61.65;;
59970;SDS011;45825;45.434;9.116;2024-01-15T07:56:01;105.50;;;57.03;;
59970;SDS011;45825;45.434;9.116;2024-01-15T07:58:26;111.03;;;57.58;;
59970;SDS011;45825;45.434;9.116;2024-01-15T08:00:51;105.03;;;58.30;;
59970;SDS011;45825;45.434;9.116;2024-01-15T08:03:17;104.00;;;55.75;;
59970;SDS011;45825;45.434;9.116;2024-01-15T08:05:42;103.75;;;54.20;;
59970;SDS011;45825;45.434;9.116;2024-01-15T08:08:08;105.82;;;57.00;;
59970;SDS011;45825;45.434;9.116;2024-01-15T08:10:33;113.53;;;57.20;;
59970;SDS011;45825;45.434;9.116;2024-01-15T08:12:58;131.40;;;57.50;;
59970;SDS011;45825;45.434;9.116;2024-01-15T08:15:24;100.88;;;56.47;;
59970;SDS011;45825;45.434;9.116;2024-01-15T08:17:49;110.15;;;57.10;;
59970;SDS011;45825;45.434;9.116;2024-01-15T08:20:15;113.05;;;55.55;;
59970;SDS011;45825;45.434;9.116;2024-01-15T08:22:41;100.40;;;57.15;;
59970;SDS011;45825;45.434;9.116;2024-01-15T08:25:06;107.93;;;58.00;;
59970;SDS011;45825;45.434;9.116;2024-01-15T08:27:32;100.30;;;57.22;;
59970;SDS011;45825;45.434;9.116;2024-01-15T08:29:57;103.78;;;58.22;;
59970;SDS011;45825;45.434;9.116;2024-01-15T08:32:22;110.05;;;58.55;;
59970;SDS011;45825;45.434;9.116;2024-01-15T08:34:48;98.50;;;56.90;;
59970;SDS011;45825;45.434;9.116;2024-01-15T08:37:17;114.32;;;57.92;;
59970;SDS011;45825;45.434;9.116;2024-01-15T08:39:44;105.72;;;57.15;;
59970;SDS011;45825;45.434;9.116;2024-01-15T08:42:09;103.88;;;56.95;;
59970;SDS011;45825;45.434;9.116;2024-01-15T08:44:35;108.88;;;56.58;;
59970;SDS011;45825;45.434;9.116;2024-01-15T08:47:01;114.28;;;58.92;;
59970;SDS011;45825;45.434;9.116;2024-01-15T08:49:27;124.78;;;59.80;;
59970;SDS011;45825;45.434;9.116;2024-01-15T08:51:53;113.90;;;59.58;;
59970;SDS011;45825;45.434;9.116;2024-01-15T08:54:18;128.45;;;64.35;;
59970;SDS011;45825;45.434;9.116;2024-01-15T08:56:43;147.77;;;62.60;;
59970;SDS011;45825;45.434;9.116;2024-01-15T08:59:09;146.07;;;65.90;;
59970;SDS011;45825;45.434;9.116;2024-01-15T09:01:36;131.35;;;62.78;;
59970;SDS011;45825;45.434;9.116;2024-01-15T09:04:03;128.18;;;60.63;;
59970;SDS011;45825;45.434;9.116;2024-01-15T09:06:28;118.32;;;59.17;;
59970;SDS011;45825;45.434;9.116;2024-01-15T09:08:54;104.55;;;56.45;;
59970;SDS011;45825;45.434;9.116;2024-01-15T09:11:19;101.03;;;55.67;;
59970;SDS011;45825;45.434;9.116;2024-01-15T09:13:44;112.13;;;56.95;;
59970;SDS011;45825;45.434;9.116;2024-01-15T09:16:09;122.25;;;60.25;;
59970;SDS011;45825;45.434;9.116;2024-01-15T09:18:35;106.95;;;58.40;;
59970;SDS011;45825;45.434;9.116;2024-01-15T09:21:00;119.38;;;62.13;;
59970;SDS011;45825;45.434;9.116;2024-01-15T09:23:28;118.47;;;60.03;;
59970;SDS011;45825;45.434;9.116;2024-01-15T09:25:53;142.90;;;66.57;;
59970;SDS011;45825;45.434;9.116;2024-01-15T09:28:19;144.65;;;66.03;;
59970;SDS011;45825;45.434;9.116;2024-01-15T09:30:44;136.00;;;64.78;;
59970;SDS011;45825;45.434;9.116;2024-01-15T09:33:10;122.65;;;62.88;;
59970;SDS011;45825;45.434;9.116;2024-01-15T09:35:35;134.48;;;63.60;;
59970;SDS011;45825;45.434;9.116;2024-01-15T09:38:01;131.30;;;65.57;;
59970;SDS011;45825;45.434;9.116;2024-01-15T09:40:28;133.73;;;65.32;;
59970;SDS011;45825;45.434;9.116;2024-01-15T09:42:57;132.80;;;63.38;;
59970;SDS011;45825;45.434;9.116;2024-01-15T09:45:23;128.35;;;63.20;;
59970;SDS011;45825;45.434;9.116;2024-01-15T09:47:48;119.68;;;59.63;;
59970;SDS011;45825;45.434;9.116;2024-01-15T09:50:13;126.85;;;63.60;;
59970;SDS011;45825;45.434;9.116;2024-01-15T09:52:39;142.43;;;62.35;;
59970;SDS011;45825;45.434;9.116;2024-01-15T09:55:06;147.43;;;67.85;;
59970;SDS011;45825;45.434;9.116;2024-01-15T09:57:34;142.30;;;66.18;;
59970;SDS011;45825;45.434;9.116;2024-01-15T10:00:01;152.35;;;68.13;;
59970;SDS011;45825;45.434;9.116;2024-01-15T10:02:31;142.95;;;66.20;;
59970;SDS011;45825;45.434;9.116;2024-01-15T10:04:56;145.15;;;67.25;;
59970;SDS011;45825;45.434;9.116;2024-01-15T10:07:21;234.32;;;128.77;;
59970;SDS011;45825;45.434;9.116;2024-01-15T10:09:49;139.43;;;67.38;;
59970;SDS011;45825;45.434;9.116;2024-01-15T10:12:14;141.95;;;63.85;;
59970;SDS011;45825;45.434;9.116;2024-01-15T10:14:40;130.90;;;62.05;;
59970;SDS011;45825;45.434;9.116;2024-01-15T10:17:12;129.15;;;63.00;;
59970;SDS011;45825;45.434;9.116;2024-01-15T10:19:39;129.27;;;64.53;;
59970;SDS011;45825;45.434;9.116;2024-01-15T10:22:06;168.95;;;89.47;;
59970;SDS011;45825;45.434;9.116;2024-01-15T10:24:34;110.30;;;57.05;;
59970;SDS011;45825;45.434;9.116;2024-01-15T10:27:07;106.88;;;57.38;;
59970;SDS011;45825;45.434;9.116;2024-01-15T10:29:34;99.03;;;54.67;;
59970;SDS011;45825;45.434;9.116;2024-01-15T10:31:59;101.47;;;55.13;;
59970;SDS011;45825;45.434;9.116;2024-01-15T10:34:26;99.45;;;55.10;;
59970;SDS011;45825;45.434;9.116;2024-01-15T10:36:51;93.03;;;53.08;;
59970;SDS011;45825;45.434;9.116;2024-01-15T10:39:20;102.05;;;55.78;;
59970;SDS011;45825;45.434;9.116;2024-01-15T10:41:46;93.70;;;52.95;;
59970;SDS011;45825;45.434;9.116;2024-01-15T10:44:12;97.60;;;55.35;;
59970;SDS011;45825;45.434;9.116;2024-01-15T10:46:37;97.63;;;54.28;;
59970;SDS011;45825;45.434;9.116;2024-01-15T10:49:04;92.85;;;52.95;;
59970;SDS011;45825;45.434;9.116;2024-01-15T10:51:29;101.15;;;54.22;;
59970;SDS011;45825;45.434;9.116;2024-01-15T10:53:55;104.60;;;62.72;;
59970;SDS011;45825;45.434;9.116;2024-01-15T10:56:22;88.90;;;52.35;;
59970;SDS011;45825;45.434;9.116;2024-01-15T10:58:48;85.63;;;51.05;;
59970;SDS011;45825;45.434;9.116;2024-01-15T11:01:17;93.10;;;56.70;;
59970;SDS011;45825;45.434;9.116;2024-01-15T11:03:44;108.03;;;59.72;;
59970;SDS011;45825;45.434;9.116;2024-01-15T11:06:16;97.07;;;55.58;;
59970;SDS011;45825;45.434;9.116;2024-01-15T11:08:46;100.90;;;55.75;;
59970;SDS011;45825;45.434;9.116;2024-01-15T11:11:15;93.95;;;53.22;;
59970;SDS011;45825;45.434;9.116;2024-01-15T11:13:41;79.07;;;49.67;;
59970;SDS011;45825;45.434;9.116;2024-01-15T11:16:10;74.20;;;44.28;;
59970;SDS011;45825;45.434;9.116;2024-01-15T11:18:40;69.55;;;45.65;;
59970;SDS011;45825;45.434;9.116;2024-01-15T11:23:45;68.88;;;42.60;;
59970;SDS011;45825;45.434;9.116;2024-01-15T11:26:28;67.60;;;44.17;;
59970;SDS011;45825;45.434;9.116;2024-01-15T11:29:10;67.93;;;44.55;;
59970;SDS011;45825;45.434;9.116;2024-01-15T11:34:20;55.90;;;38.17;;
59970;SDS011;45825;45.434;9.116;2024-01-15T11:41:51;54.67;;;37.55;;
59970;SDS011;45825;45.434;9.116;2024-01-15T11:44:17;54.22;;;35.80;;
59970;SDS011;45825;45.434;9.116;2024-01-15T11:46:43;48.83;;;35.70;;
59970;SDS011;45825;45.434;9.116;2024-01-15T11:52:02;52.47;;;36.40;;
59970;SDS011;45825;45.434;9.116;2024-01-15T11:54:29;48.95;;;33.90;;
59970;SDS011;45825;45.434;9.116;2024-01-15T11:57:00;47.60;;;33.05;;
59970;SDS011;45825;45.434;9.116;2024-01-15T11:59:34;45.28;;;33.15;;
59970;SDS011;45825;45.434;9.116;2024-01-15T12:01:59;45.05;;;32.70;;
59970;SDS011;45825;45.434;9.116;2024-01-15T12:04:26;46.28;;;32.88;;
59970;SDS011;45825;45.434;9.116;2024-01-15T12:06:52;45.90;;;31.67;;
59970;SDS011;45825;45.434;9.116;2024-01-15T12:09:19;43.70;;;31.88;;
59970;SDS011;45825;45.434;9.116;2024-01-15T12:11:47;46.72;;;32.17;;
59970;SDS011;45825;45.434;9.116;2024-01-15T12:14:20;46.38;;;33.33;;
59970;SDS011;45825;45.434;9.116;2024-01-15T12:16:46;43.08;;;32.17;;
59970;SDS011;45825;45.434;9.116;2024-01-15T12:19:12;44.08;;;31.55;;
59970;SDS011;45825;45.434;9.116;2024-01-15T12:21:39;49.50;;;31.88;;
59970;SDS011;45825;45.434;9.116;2024-01-15T12:24:06;39.10;;;29.45;;
59970;SDS011;45825;45.434;9.116;2024-01-15T12:26:32;38.88;;;29.13;;
59970;SDS011;45825;45.434;9.116;2024-01-15T12:29:01;41.75;;;30.73;;
59970;SDS011;45825;45.434;9.116;2024-01-15T12:31:29;39.63;;;29.95;;
59970;SDS011;45825;45.434;9.116;2024-01-15T12:33:55;37.42;;;28.55;;
59970;SDS011;45825;45.434;9.116;2024-01-15T12:36:21;36.38;;;27.45;;
59970;SDS011;45825;45.434;9.116;2024-01-15T12:38:46;42.10;;;29.70;;
59970;SDS011;45825;45.434;9.116;2024-01-15T12:41:11;39.38;;;29.60;;
59970;SDS011;45825;45.434;9.116;2024-01-15T12:43:37;37.60;;;29.05;;
59970;SDS011;45825;45.434;9.116;2024-01-15T12:46:02;40.50;;;28.48;;
59970;SDS011;45825;45.434;9.116;2024-01-15T12:48:28;38.67;;;28.00;;
59970;SDS011;45825;45.434;9.116;2024-01-15T12:50:53;35.17;;;26.70;;
59970;SDS011;45825;45.434;9.116;2024-01-15T12:53:20;36.42;;;25.05;;
59970;SDS011;45825;45.434;9.116;2024-01-15T12:55:45;33.33;;;25.45;;
59970;SDS011;45825;45.434;9.116;2024-01-15T12:58:11;35.15;;;25.85;;
59970;SDS011;45825;45.434;9.116;2024-01-15T13:00:36;30.15;;;23.88;;
59970;SDS011;45825;45.434;9.116;2024-01-15T13:03:01;29.90;;;23.58;;
59970;SDS011;45825;45.434;9.116;2024-01-15T13:05:28;32.05;;;24.08;;
59970;SDS011;45825;45.434;9.116;2024-01-15T13:07:56;30.08;;;22.77;;
59970;SDS011;45825;45.434;9.116;2024-01-15T13:10:21;30.25;;;24.10;;
59970;SDS011;45825;45.434;9.116;2024-01-15T13:12:46;29.85;;;23.52;;
59970;SDS011;45825;45.434;9.116;2024-01-15T13:15:12;35.05;;;25.80;;
59970;SDS011;45825;45.434;9.116;2024-01-15T13:17:38;37.53;;;26.20;;
59970;SDS011;45825;45.434;9.116;2024-01-15T13:20:05;32.72;;;25.77;;
59970;SDS011;45825;45.434;9.116;2024-01-15T13:22:31;35.13;;;26.80;;
59970;SDS011;45825;45.434;9.116;2024-01-15T13:24:57;37.83;;;28.02;;
59970;SDS011;45825;45.434;9.116;2024-01-15T13:27:24;32.67;;;26.70;;
59970;SDS011;45825;45.434;9.116;2024-01-15T13:29:49;36.45;;;26.67;;
59970;SDS011;45825;45.434;9.116;2024-01-15T13:32:15;30.95;;;25.40;;
59970;SDS011;45825;45.434;9.116;2024-01-15T13:34:47;32.63;;;26.05;;
59970;SDS011;45825;45.434;9.116;2024-01-15T13:37:12;30.17;;;25.20;;
59970;SDS011;45825;45.434;9.116;2024-01-15T13:39:38;32.92;;;25.88;;
59970;SDS011;45825;45.434;9.116;2024-01-15T13:42:03;34.72;;;26.63;;
59970;SDS011;45825;45.434;9.116;2024-01-15T13:44:29;34.42;;;24.15;;
59970;SDS011;45825;45.434;9.116;2024-01-15T13:46:54;36.45;;;25.92;;
59970;SDS011;45825;45.434;9.116;2024-01-15T13:49:19;32.30;;;24.88;;
59970;SDS011;45825;45.434;9.116;2024-01-15T13:51:45;33.50;;;26.15;;
59970;SDS011;45825;45.434;9.116;2024-01-15T13:54:11;32.25;;;25.25;;
59970;SDS011;45825;45.434;9.116;2024-01-15T13:56:37;33.67;;;25.58;;
59970;SDS011;45825;45.434;9.116;2024-01-15T13:59:02;35.47;;;26.00;;
59970;SDS011;45825;45.434;9.116;2024-01-15T14:01:29;33.47;;;24.92;;
59970;SDS011;45825;45.434;9.116;2024-01-15T14:03:54;30.13;;;22.38;;
59970;SDS011;45825;45.434;9.116;2024-01-15T14:06:19;28.85;;;21.60;;
59970;SDS011;45825;45.434;9.116;2024-01-15T14:08:45;25.95;;;19.80;;
59970;SDS011;45825;45.434;9.116;2024-01-15T14:11:10;30.38;;;20.52;;
59970;SDS011;45825;45.434;9.116;2024-01-15T14:13:35;27.83;;;20.77;;
59970;SDS011;45825;45.434;9.116;2024-01-15T14:16:01;28.23;;;20.08;;
59970;SDS011;45825;45.434;9.116;2024-01-15T14:18:26;26.15;;;19.42;;
59970;SDS011;45825;45.434;9.116;2024-01-15T14:20:52;26.23;;;19.45;;
59970;SDS011;45825;45.434;9.116;2024-01-15T14:23:18;25.77;;;19.35;;